AXB2795 VOPB-VOBL
Flight info
| Callsign | AXB2795 |
|---|---|
| Flight time | 2h 7m |
| Altitude | 36000 |
| Route | LEGIN P761 MMV W117 XIVIL XIVIL7F |
| Aircraft | A320/M-SDE3FGHIRWY/LB1 |
Departure
| Time | 2026-05-06 08:37 |
|---|---|
| Airport | Veer Savarkar International Airport / INS Utkrosh (VOPB) |
Arrival
| Time | 2026-05-06 10:45 |
|---|---|
| Airport | Kempegowda International Airport Bengaluru (VOBL) |
| Time | Latitude | Longitude | Altitude | Speed | Heading |
|---|---|---|---|---|---|
| 2026-05-06 08:25 | 11.65102 | 92.73421 | 47 ft | 0 kts | 308° |
| 2026-05-06 08:29 | 11.65102 | 92.73422 | 47 ft | 1 kts | 308° |
| 2026-05-06 08:30 | 11.65092 | 92.73434 | 44 ft | 3 kts | 308° |
| 2026-05-06 08:30 | 11.65080 | 92.73450 | 44 ft | 3 kts | 308° |
| 2026-05-06 08:30 | 11.65069 | 92.73464 | 45 ft | 3 kts | 320° |
| 2026-05-06 08:30 | 11.65053 | 92.73474 | 45 ft | 3 kts | 359° |
| 2026-05-06 08:31 | 11.65034 | 92.73470 | 45 ft | 3 kts | 31° |
| 2026-05-06 08:31 | 11.65022 | 92.73462 | 46 ft | 1 kts | 37° |
| 2026-05-06 08:31 | 11.65019 | 92.73460 | 46 ft | 1 kts | 37° |
| 2026-05-06 08:34 | 11.65026 | 92.73465 | 46 ft | 4 kts | 38° |
| 2026-05-06 08:34 | 11.65036 | 92.73473 | 45 ft | 0 kts | 37° |
| 2026-05-06 08:35 | 11.65037 | 92.73473 | 45 ft | 0 kts | 37° |
| 2026-05-06 08:35 | 11.65046 | 92.73481 | 47 ft | 6 kts | 37° |
| 2026-05-06 08:35 | 11.65077 | 92.73504 | 50 ft | 4 kts | 38° |
| 2026-05-06 08:35 | 11.65092 | 92.73517 | 51 ft | 7 kts | 38° |
| 2026-05-06 08:36 | 11.65131 | 92.73553 | 53 ft | 7 kts | 60° |
| 2026-05-06 08:36 | 11.65108 | 92.73608 | 52 ft | 14 kts | 129° |
| 2026-05-06 08:36 | 11.65033 | 92.73645 | 53 ft | 14 kts | 208° |
| 2026-05-06 08:36 | 11.64948 | 92.73582 | 48 ft | 18 kts | 217° |
| 2026-05-06 08:37 | 11.64693 | 92.73393 | 36 ft | 82 kts | 215° |
| 2026-05-06 08:37 | 11.64052 | 92.72912 | 30 ft | 143 kts | 216° |
| 2026-05-06 08:37 | 11.63131 | 92.72240 | 229 ft | 172 kts | 214° |
| 2026-05-06 08:37 | 11.62233 | 92.71559 | 1032 ft | 159 kts | 213° |
| 2026-05-06 08:38 | 11.61319 | 92.70873 | 1497 ft | 171 kts | 211° |
| 2026-05-06 08:38 | 11.60316 | 92.70098 | 1654 ft | 192 kts | 213° |
| 2026-05-06 08:38 | 11.59182 | 92.69245 | 1873 ft | 214 kts | 213° |
| 2026-05-06 08:38 | 11.57917 | 92.68297 | 2077 ft | 237 kts | 213° |
| 2026-05-06 08:39 | 11.56511 | 92.67269 | 2370 ft | 260 kts | 212° |
| 2026-05-06 08:39 | 11.55024 | 92.66146 | 2932 ft | 271 kts | 219° |
| 2026-05-06 08:39 | 11.53896 | 92.64586 | 3679 ft | 279 kts | 245° |
| 2026-05-06 08:39 | 11.53538 | 92.62636 | 4475 ft | 285 kts | 273° |
| 2026-05-06 08:40 | 11.53935 | 92.60642 | 5262 ft | 288 kts | 284° |
| 2026-05-06 08:40 | 11.54434 | 92.58654 | 6031 ft | 291 kts | 284° |
| 2026-05-06 08:40 | 11.54939 | 92.56647 | 6746 ft | 294 kts | 283° |
| 2026-05-06 08:40 | 11.55448 | 92.54618 | 7457 ft | 297 kts | 283° |
| 2026-05-06 08:41 | 11.55960 | 92.52565 | 8165 ft | 300 kts | 283° |
| 2026-05-06 08:41 | 11.56467 | 92.50518 | 8870 ft | 303 kts | 283° |
| 2026-05-06 08:41 | 11.56983 | 92.48427 | 9576 ft | 306 kts | 283° |
| 2026-05-06 08:41 | 11.57507 | 92.46299 | 10082 ft | 316 kts | 283° |
| 2026-05-06 08:42 | 11.58061 | 92.44048 | 10217 ft | 339 kts | 283° |
| 2026-05-06 08:42 | 11.58652 | 92.41640 | 10340 ft | 360 kts | 283° |
| 2026-05-06 08:42 | 11.59278 | 92.39102 | 10557 ft | 376 kts | 283° |
| 2026-05-06 08:42 | 11.59920 | 92.36497 | 11042 ft | 381 kts | 283° |
| 2026-05-06 08:43 | 11.60570 | 92.33866 | 11609 ft | 384 kts | 283° |
| 2026-05-06 08:43 | 11.61057 | 92.31894 | 12034 ft | 387 kts | 284° |
| 2026-05-06 08:43 | 11.61516 | 92.30022 | 12216 ft | 383 kts | 283° |
| 2026-05-06 08:43 | 11.62164 | 92.27367 | 12525 ft | 389 kts | 283° |
| 2026-05-06 08:44 | 11.62826 | 92.24674 | 13075 ft | 393 kts | 284° |
| 2026-05-06 08:44 | 11.63496 | 92.21959 | 13617 ft | 396 kts | 284° |
| 2026-05-06 08:44 | 11.64171 | 92.19224 | 14094 ft | 399 kts | 284° |
| 2026-05-06 08:44 | 11.64850 | 92.16470 | 14571 ft | 402 kts | 284° |
| 2026-05-06 08:45 | 11.65531 | 92.13702 | 15051 ft | 404 kts | 283° |
| 2026-05-06 08:45 | 11.66216 | 92.10911 | 15514 ft | 407 kts | 283° |
| 2026-05-06 08:45 | 11.66908 | 92.08097 | 15972 ft | 410 kts | 283° |
| 2026-05-06 08:45 | 11.67602 | 92.05271 | 16422 ft | 412 kts | 283° |
| 2026-05-06 08:46 | 11.68300 | 92.02427 | 16870 ft | 415 kts | 283° |
| 2026-05-06 08:46 | 11.69003 | 91.99563 | 17300 ft | 417 kts | 283° |
| 2026-05-06 08:46 | 11.69710 | 91.96681 | 17716 ft | 420 kts | 283° |
| 2026-05-06 08:46 | 11.70418 | 91.93784 | 18127 ft | 423 kts | 283° |
| 2026-05-06 08:47 | 11.71131 | 91.90862 | 18482 ft | 425 kts | 283° |
| 2026-05-06 08:47 | 11.71847 | 91.87933 | 18835 ft | 427 kts | 283° |
| 2026-05-06 08:47 | 11.72559 | 91.85020 | 19181 ft | 430 kts | 283° |
| 2026-05-06 08:47 | 11.73293 | 91.82013 | 19545 ft | 432 kts | 283° |
| 2026-05-06 08:48 | 11.74010 | 91.79079 | 19886 ft | 434 kts | 283° |
| 2026-05-06 08:48 | 11.74740 | 91.76085 | 20226 ft | 436 kts | 283° |
| 2026-05-06 08:48 | 11.75474 | 91.73073 | 20567 ft | 438 kts | 283° |
| 2026-05-06 08:48 | 11.76213 | 91.70044 | 20897 ft | 440 kts | 283° |
| 2026-05-06 08:49 | 11.76953 | 91.67005 | 21229 ft | 443 kts | 283° |
| 2026-05-06 08:49 | 11.77697 | 91.63946 | 21554 ft | 445 kts | 283° |
| 2026-05-06 08:49 | 11.78444 | 91.60875 | 21879 ft | 447 kts | 283° |
| 2026-05-06 08:49 | 11.79196 | 91.57791 | 22193 ft | 449 kts | 283° |
| 2026-05-06 08:50 | 11.79951 | 91.54688 | 22501 ft | 451 kts | 283° |
| 2026-05-06 08:50 | 11.80707 | 91.51570 | 22802 ft | 453 kts | 283° |
| 2026-05-06 08:50 | 11.81467 | 91.48440 | 23099 ft | 456 kts | 283° |
| 2026-05-06 08:50 | 11.82231 | 91.45295 | 23382 ft | 458 kts | 283° |
| 2026-05-06 08:51 | 11.82997 | 91.42134 | 23618 ft | 460 kts | 283° |
| 2026-05-06 08:51 | 11.83766 | 91.38963 | 23863 ft | 461 kts | 283° |
| 2026-05-06 08:51 | 11.84534 | 91.35779 | 24110 ft | 462 kts | 283° |
| 2026-05-06 08:51 | 11.85303 | 91.32589 | 24348 ft | 464 kts | 283° |
| 2026-05-06 08:52 | 11.85999 | 91.29376 | 24584 ft | 465 kts | 277° |
| 2026-05-06 08:52 | 11.86344 | 91.26090 | 24813 ft | 465 kts | 274° |
| 2026-05-06 08:52 | 11.86659 | 91.22795 | 25050 ft | 467 kts | 275° |
| 2026-05-06 08:52 | 11.86980 | 91.19497 | 25289 ft | 468 kts | 275° |
| 2026-05-06 08:53 | 11.87305 | 91.16183 | 25523 ft | 469 kts | 275° |
| 2026-05-06 08:53 | 11.87631 | 91.12868 | 25755 ft | 471 kts | 275° |
| 2026-05-06 08:53 | 11.87955 | 91.09543 | 25984 ft | 472 kts | 275° |
| 2026-05-06 08:53 | 11.88279 | 91.06203 | 26210 ft | 473 kts | 275° |
| 2026-05-06 08:54 | 11.88603 | 91.02861 | 26428 ft | 474 kts | 275° |
| 2026-05-06 08:54 | 11.88926 | 90.99501 | 26640 ft | 475 kts | 274° |
| 2026-05-06 08:54 | 11.89240 | 90.96187 | 26848 ft | 477 kts | 274° |
| 2026-05-06 08:54 | 11.89559 | 90.92814 | 27049 ft | 478 kts | 274° |
| 2026-05-06 08:55 | 11.89881 | 90.89436 | 27254 ft | 479 kts | 274° |
| 2026-05-06 08:55 | 11.90206 | 90.86047 | 27452 ft | 480 kts | 274° |
| 2026-05-06 08:55 | 11.90531 | 90.82646 | 27654 ft | 481 kts | 274° |
| 2026-05-06 08:55 | 11.90855 | 90.79247 | 27854 ft | 483 kts | 274° |
| 2026-05-06 08:56 | 11.91179 | 90.75833 | 28046 ft | 484 kts | 274° |
| 2026-05-06 08:56 | 11.91504 | 90.72405 | 28265 ft | 484 kts | 274° |
| 2026-05-06 08:56 | 11.91832 | 90.68987 | 28565 ft | 483 kts | 275° |
| 2026-05-06 08:56 | 11.92163 | 90.65582 | 28855 ft | 482 kts | 275° |
| 2026-05-06 08:57 | 11.92493 | 90.62183 | 29128 ft | 481 kts | 274° |
| 2026-05-06 08:57 | 11.92818 | 90.58778 | 29426 ft | 480 kts | 274° |
| 2026-05-06 08:57 | 11.93136 | 90.55391 | 29705 ft | 480 kts | 274° |
| 2026-05-06 08:57 | 11.93456 | 90.51998 | 29966 ft | 479 kts | 274° |
| 2026-05-06 08:58 | 11.93775 | 90.48610 | 30198 ft | 478 kts | 274° |
| 2026-05-06 08:58 | 11.94094 | 90.45238 | 30441 ft | 478 kts | 274° |
| 2026-05-06 08:58 | 11.94415 | 90.41859 | 30688 ft | 477 kts | 274° |
| 2026-05-06 08:58 | 11.94733 | 90.38488 | 30931 ft | 477 kts | 274° |
| 2026-05-06 08:59 | 11.95051 | 90.35123 | 31178 ft | 476 kts | 274° |
| 2026-05-06 08:59 | 11.95368 | 90.31762 | 31432 ft | 475 kts | 274° |
| 2026-05-06 08:59 | 11.95681 | 90.28404 | 31679 ft | 474 kts | 274° |
| 2026-05-06 08:59 | 11.95993 | 90.25056 | 31941 ft | 474 kts | 274° |
| 2026-05-06 09:00 | 11.96307 | 90.21716 | 32189 ft | 473 kts | 274° |
| 2026-05-06 09:00 | 11.96620 | 90.18374 | 32441 ft | 472 kts | 274° |
| 2026-05-06 09:00 | 11.96932 | 90.15036 | 32695 ft | 472 kts | 274° |
| 2026-05-06 09:00 | 11.97238 | 90.11748 | 32951 ft | 471 kts | 274° |
| 2026-05-06 09:01 | 11.97550 | 90.08381 | 33208 ft | 470 kts | 274° |
| 2026-05-06 09:01 | 11.97851 | 90.05100 | 33471 ft | 469 kts | 274° |
| 2026-05-06 09:01 | 11.98156 | 90.01783 | 33744 ft | 469 kts | 274° |
| 2026-05-06 09:01 | 11.98461 | 89.98474 | 33973 ft | 468 kts | 274° |
| 2026-05-06 09:02 | 11.98771 | 89.95118 | 34199 ft | 467 kts | 274° |
| 2026-05-06 09:02 | 11.99071 | 89.91868 | 34420 ft | 467 kts | 274° |
| 2026-05-06 09:02 | 11.99375 | 89.88566 | 34635 ft | 466 kts | 274° |
| 2026-05-06 09:02 | 11.99681 | 89.85273 | 34847 ft | 466 kts | 274° |
| 2026-05-06 09:03 | 11.99988 | 89.81983 | 35052 ft | 465 kts | 274° |
| 2026-05-06 09:03 | 12.00295 | 89.78696 | 35249 ft | 465 kts | 274° |
| 2026-05-06 09:03 | 12.00598 | 89.75410 | 35446 ft | 464 kts | 274° |
| 2026-05-06 09:03 | 12.00896 | 89.72133 | 35640 ft | 463 kts | 274° |
| 2026-05-06 09:04 | 12.01193 | 89.68856 | 35779 ft | 464 kts | 274° |
| 2026-05-06 09:04 | 12.01796 | 89.62279 | 35805 ft | 465 kts | 274° |
| 2026-05-06 09:05 | 12.02399 | 89.55697 | 35817 ft | 465 kts | 274° |
| 2026-05-06 09:05 | 12.02998 | 89.49117 | 35813 ft | 465 kts | 274° |
| 2026-05-06 09:06 | 12.03591 | 89.42535 | 35811 ft | 466 kts | 274° |
| 2026-05-06 09:06 | 12.04188 | 89.35943 | 35818 ft | 466 kts | 274° |
| 2026-05-06 09:07 | 12.04785 | 89.29354 | 35815 ft | 466 kts | 274° |
| 2026-05-06 09:07 | 12.05373 | 89.22748 | 35814 ft | 467 kts | 274° |
| 2026-05-06 09:08 | 12.05970 | 89.16147 | 35808 ft | 467 kts | 274° |
| 2026-05-06 09:08 | 12.06560 | 89.09584 | 35802 ft | 467 kts | 274° |
| 2026-05-06 09:09 | 12.07150 | 89.02962 | 35807 ft | 468 kts | 274° |
| 2026-05-06 09:09 | 12.07739 | 88.96338 | 35817 ft | 468 kts | 274° |
| 2026-05-06 09:10 | 12.08328 | 88.89716 | 35815 ft | 468 kts | 274° |
| 2026-05-06 09:10 | 12.08913 | 88.83114 | 35810 ft | 469 kts | 274° |
| 2026-05-06 09:11 | 12.09501 | 88.76479 | 35815 ft | 469 kts | 274° |
| 2026-05-06 09:11 | 12.10083 | 88.69838 | 35812 ft | 470 kts | 273° |
| 2026-05-06 09:12 | 12.10744 | 88.63193 | 35814 ft | 470 kts | 275° |
| 2026-05-06 09:12 | 12.11566 | 88.56563 | 35807 ft | 471 kts | 276° |
| 2026-05-06 09:13 | 12.12409 | 88.49928 | 35810 ft | 471 kts | 275° |
| 2026-05-06 09:13 | 12.13201 | 88.43296 | 35807 ft | 471 kts | 275° |
| 2026-05-06 09:14 | 12.13836 | 88.37769 | 35804 ft | 471 kts | 275° |
| 2026-05-06 09:14 | 12.14601 | 88.31119 | 35805 ft | 471 kts | 275° |
| 2026-05-06 09:15 | 12.15374 | 88.24465 | 35806 ft | 472 kts | 275° |
| 2026-05-06 09:15 | 12.16159 | 88.17808 | 35812 ft | 472 kts | 275° |
| 2026-05-06 09:16 | 12.16939 | 88.11148 | 35812 ft | 472 kts | 275° |
| 2026-05-06 09:16 | 12.17707 | 88.04489 | 35817 ft | 472 kts | 275° |
| 2026-05-06 09:17 | 12.18474 | 87.97843 | 35820 ft | 471 kts | 275° |
| 2026-05-06 09:17 | 12.19247 | 87.91184 | 35822 ft | 472 kts | 275° |
| 2026-05-06 09:18 | 12.20015 | 87.84578 | 35824 ft | 471 kts | 275° |
| 2026-05-06 09:18 | 12.20783 | 87.77928 | 35815 ft | 471 kts | 275° |
| 2026-05-06 09:19 | 12.21541 | 87.71284 | 35824 ft | 471 kts | 275° |
| 2026-05-06 09:19 | 12.22301 | 87.64631 | 35821 ft | 471 kts | 275° |
| 2026-05-06 09:20 | 12.23060 | 87.57989 | 35819 ft | 471 kts | 275° |
| 2026-05-06 09:20 | 12.23821 | 87.51339 | 35822 ft | 470 kts | 275° |
| 2026-05-06 09:21 | 12.24578 | 87.44704 | 35823 ft | 470 kts | 275° |
| 2026-05-06 09:21 | 12.25328 | 87.38068 | 35828 ft | 470 kts | 275° |
| 2026-05-06 09:22 | 12.26076 | 87.31436 | 35826 ft | 469 kts | 275° |
| 2026-05-06 09:22 | 12.26831 | 87.24812 | 35819 ft | 469 kts | 275° |
| 2026-05-06 09:23 | 12.27576 | 87.18183 | 35819 ft | 469 kts | 275° |
| 2026-05-06 09:23 | 12.28321 | 87.11556 | 35826 ft | 469 kts | 275° |
| 2026-05-06 09:24 | 12.29067 | 87.04939 | 35819 ft | 469 kts | 275° |
| 2026-05-06 09:24 | 12.29808 | 86.98323 | 35818 ft | 469 kts | 275° |
| 2026-05-06 09:25 | 12.30547 | 86.91706 | 35821 ft | 468 kts | 275° |
| 2026-05-06 09:25 | 12.31288 | 86.85078 | 35822 ft | 468 kts | 275° |
| 2026-05-06 09:26 | 12.32020 | 86.78512 | 35820 ft | 468 kts | 275° |
| 2026-05-06 09:26 | 12.32755 | 86.71899 | 35822 ft | 468 kts | 275° |
| 2026-05-06 09:27 | 12.33489 | 86.65298 | 35824 ft | 468 kts | 275° |
| 2026-05-06 09:27 | 12.34220 | 86.58682 | 35812 ft | 468 kts | 275° |
| 2026-05-06 09:28 | 12.34949 | 86.52070 | 35824 ft | 468 kts | 275° |
| 2026-05-06 09:28 | 12.35675 | 86.45460 | 35826 ft | 468 kts | 275° |
| 2026-05-06 09:29 | 12.36404 | 86.38850 | 35821 ft | 468 kts | 275° |
| 2026-05-06 09:29 | 12.37131 | 86.32230 | 35823 ft | 468 kts | 275° |
| 2026-05-06 09:30 | 12.37856 | 86.25620 | 35827 ft | 468 kts | 275° |
| 2026-05-06 09:30 | 12.38573 | 86.19003 | 35826 ft | 468 kts | 275° |
| 2026-05-06 09:31 | 12.39290 | 86.12390 | 35822 ft | 468 kts | 275° |
| 2026-05-06 09:31 | 12.40003 | 86.05810 | 35818 ft | 468 kts | 275° |
| 2026-05-06 09:32 | 12.40721 | 85.99196 | 35827 ft | 468 kts | 275° |
| 2026-05-06 09:32 | 12.41438 | 85.92576 | 35828 ft | 468 kts | 275° |
| 2026-05-06 09:33 | 12.42154 | 85.85960 | 35823 ft | 468 kts | 275° |
| 2026-05-06 09:33 | 12.42868 | 85.79341 | 35826 ft | 468 kts | 275° |
| 2026-05-06 09:34 | 12.43582 | 85.72714 | 35823 ft | 468 kts | 275° |
| 2026-05-06 09:34 | 12.44287 | 85.66099 | 35822 ft | 468 kts | 275° |
| 2026-05-06 09:35 | 12.44989 | 85.59478 | 35820 ft | 467 kts | 275° |
| 2026-05-06 09:35 | 12.45698 | 85.52882 | 35825 ft | 467 kts | 275° |
| 2026-05-06 09:36 | 12.46407 | 85.46292 | 35828 ft | 466 kts | 275° |
| 2026-05-06 09:36 | 12.47101 | 85.39705 | 35833 ft | 465 kts | 275° |
| 2026-05-06 09:37 | 12.47789 | 85.33127 | 35833 ft | 465 kts | 275° |
| 2026-05-06 09:37 | 12.48476 | 85.26553 | 35832 ft | 464 kts | 275° |
| 2026-05-06 09:38 | 12.49176 | 85.19983 | 35826 ft | 464 kts | 275° |
| 2026-05-06 09:38 | 12.49878 | 85.13420 | 35833 ft | 464 kts | 275° |
| 2026-05-06 09:39 | 12.50563 | 85.06866 | 35832 ft | 463 kts | 274° |
| 2026-05-06 09:39 | 12.51242 | 85.00308 | 35831 ft | 463 kts | 275° |
| 2026-05-06 09:40 | 12.51928 | 84.93800 | 35825 ft | 463 kts | 275° |
| 2026-05-06 09:40 | 12.52948 | 84.83971 | 35823 ft | 463 kts | 275° |
| 2026-05-06 09:41 | 12.53633 | 84.77419 | 35830 ft | 463 kts | 275° |
| 2026-05-06 09:41 | 12.54315 | 84.70874 | 35829 ft | 462 kts | 275° |
| 2026-05-06 09:42 | 12.54989 | 84.64329 | 35826 ft | 462 kts | 275° |
| 2026-05-06 09:42 | 12.55663 | 84.57792 | 35822 ft | 462 kts | 275° |
| 2026-05-06 09:43 | 12.56332 | 84.51254 | 35816 ft | 462 kts | 274° |
| 2026-05-06 09:43 | 12.56997 | 84.44716 | 35818 ft | 462 kts | 275° |
| 2026-05-06 09:44 | 12.57673 | 84.38180 | 35817 ft | 462 kts | 275° |
| 2026-05-06 09:44 | 12.58340 | 84.31634 | 35813 ft | 462 kts | 274° |
| 2026-05-06 09:45 | 12.58775 | 84.27359 | 35812 ft | 462 kts | 275° |
| 2026-05-06 09:45 | 12.59428 | 84.20847 | 35797 ft | 462 kts | 274° |
| 2026-05-06 09:46 | 12.60091 | 84.14307 | 35806 ft | 462 kts | 275° |
| 2026-05-06 09:46 | 12.60762 | 84.07754 | 35810 ft | 463 kts | 275° |
| 2026-05-06 09:47 | 12.61429 | 84.01200 | 35813 ft | 463 kts | 274° |
| 2026-05-06 09:47 | 12.62088 | 83.94682 | 35813 ft | 463 kts | 274° |
| 2026-05-06 09:48 | 12.62741 | 83.88126 | 35810 ft | 463 kts | 274° |
| 2026-05-06 09:48 | 12.63396 | 83.81567 | 35808 ft | 463 kts | 274° |
| 2026-05-06 09:49 | 12.64053 | 83.75001 | 35804 ft | 464 kts | 274° |
| 2026-05-06 09:49 | 12.64706 | 83.68435 | 35799 ft | 464 kts | 274° |
| 2026-05-06 09:50 | 12.65357 | 83.61853 | 35800 ft | 465 kts | 274° |
| 2026-05-06 09:50 | 12.66009 | 83.55268 | 35805 ft | 465 kts | 274° |
| 2026-05-06 09:51 | 12.66682 | 83.48672 | 35806 ft | 466 kts | 275° |
| 2026-05-06 09:51 | 12.67367 | 83.42072 | 35806 ft | 466 kts | 275° |
| 2026-05-06 09:52 | 12.68045 | 83.35476 | 35805 ft | 466 kts | 275° |
| 2026-05-06 09:52 | 12.68721 | 83.28880 | 35801 ft | 466 kts | 275° |
| 2026-05-06 09:53 | 12.69390 | 83.22278 | 35798 ft | 466 kts | 274° |
| 2026-05-06 09:53 | 12.70062 | 83.15670 | 35800 ft | 466 kts | 274° |
| 2026-05-06 09:54 | 12.70725 | 83.09062 | 35798 ft | 467 kts | 274° |
| 2026-05-06 09:54 | 12.71393 | 83.02452 | 35798 ft | 467 kts | 275° |
| 2026-05-06 09:55 | 12.72058 | 82.95883 | 35803 ft | 467 kts | 274° |
| 2026-05-06 09:55 | 12.72721 | 82.89269 | 35806 ft | 467 kts | 274° |
| 2026-05-06 09:56 | 12.73383 | 82.82660 | 35802 ft | 467 kts | 274° |
| 2026-05-06 09:56 | 12.74046 | 82.76041 | 35805 ft | 467 kts | 274° |
| 2026-05-06 09:57 | 12.74706 | 82.69424 | 35802 ft | 467 kts | 274° |
| 2026-05-06 09:57 | 12.75365 | 82.62803 | 35809 ft | 467 kts | 274° |
| 2026-05-06 09:58 | 12.76024 | 82.56182 | 35811 ft | 467 kts | 274° |
| 2026-05-06 09:58 | 12.76676 | 82.49565 | 35800 ft | 467 kts | 274° |
| 2026-05-06 09:59 | 12.77333 | 82.42941 | 35809 ft | 467 kts | 274° |
| 2026-05-06 09:59 | 12.77980 | 82.36320 | 35806 ft | 467 kts | 274° |
| 2026-05-06 10:00 | 12.78626 | 82.29746 | 35806 ft | 467 kts | 274° |
| 2026-05-06 10:00 | 12.79281 | 82.23083 | 35796 ft | 467 kts | 274° |
| 2026-05-06 10:01 | 12.79923 | 82.16509 | 35807 ft | 467 kts | 274° |
| 2026-05-06 10:01 | 12.80566 | 82.09887 | 35813 ft | 467 kts | 274° |
| 2026-05-06 10:02 | 12.81210 | 82.03263 | 35801 ft | 467 kts | 274° |
| 2026-05-06 10:02 | 12.81860 | 81.96637 | 35807 ft | 467 kts | 274° |
| 2026-05-06 10:03 | 12.82496 | 81.90016 | 35807 ft | 467 kts | 274° |
| 2026-05-06 10:03 | 12.83125 | 81.83398 | 35810 ft | 467 kts | 274° |
| 2026-05-06 10:04 | 12.83660 | 81.77856 | 35804 ft | 466 kts | 274° |
| 2026-05-06 10:04 | 12.84297 | 81.71247 | 35806 ft | 466 kts | 274° |
| 2026-05-06 10:05 | 12.84930 | 81.64686 | 35802 ft | 466 kts | 274° |
| 2026-05-06 10:05 | 12.85560 | 81.58076 | 35796 ft | 466 kts | 274° |
| 2026-05-06 10:06 | 12.86182 | 81.51472 | 35802 ft | 466 kts | 274° |
| 2026-05-06 10:06 | 12.86817 | 81.44863 | 35801 ft | 466 kts | 274° |
| 2026-05-06 10:07 | 12.87454 | 81.38258 | 35798 ft | 466 kts | 274° |
| 2026-05-06 10:07 | 12.88084 | 81.31655 | 35791 ft | 465 kts | 274° |
| 2026-05-06 10:08 | 12.88707 | 81.25057 | 35791 ft | 465 kts | 274° |
| 2026-05-06 10:08 | 12.89325 | 81.18454 | 35786 ft | 465 kts | 274° |
| 2026-05-06 10:09 | 12.89932 | 81.11901 | 35786 ft | 465 kts | 274° |
| 2026-05-06 10:09 | 12.90544 | 81.05310 | 35783 ft | 465 kts | 274° |
| 2026-05-06 10:10 | 12.91166 | 80.98672 | 35777 ft | 465 kts | 274° |
| 2026-05-06 10:10 | 12.91782 | 80.92121 | 35777 ft | 465 kts | 274° |
| 2026-05-06 10:11 | 12.92396 | 80.85524 | 35775 ft | 465 kts | 274° |
| 2026-05-06 10:11 | 12.93002 | 80.78926 | 35773 ft | 465 kts | 274° |
| 2026-05-06 10:12 | 12.93608 | 80.72322 | 35773 ft | 465 kts | 274° |
| 2026-05-06 10:12 | 12.94210 | 80.65713 | 35776 ft | 465 kts | 274° |
| 2026-05-06 10:13 | 12.94813 | 80.59108 | 35776 ft | 466 kts | 274° |
| 2026-05-06 10:13 | 12.95420 | 80.52494 | 35773 ft | 466 kts | 274° |
| 2026-05-06 10:14 | 12.96024 | 80.45872 | 35775 ft | 466 kts | 274° |
| 2026-05-06 10:14 | 12.96626 | 80.39297 | 35783 ft | 467 kts | 274° |
| 2026-05-06 10:15 | 12.97233 | 80.32627 | 35674 ft | 467 kts | 274° |
| 2026-05-06 10:15 | 12.97535 | 80.29312 | 35438 ft | 467 kts | 274° |
| 2026-05-06 10:15 | 12.97834 | 80.26002 | 35206 ft | 467 kts | 274° |
| 2026-05-06 10:16 | 12.98127 | 80.22728 | 34985 ft | 467 kts | 274° |
| 2026-05-06 10:16 | 12.98421 | 80.19414 | 34902 ft | 467 kts | 274° |
| 2026-05-06 10:16 | 12.99422 | 80.12839 | 34933 ft | 469 kts | 283° |
| 2026-05-06 10:17 | 13.01055 | 80.06365 | 34928 ft | 469 kts | 283° |
| 2026-05-06 10:17 | 13.02687 | 79.99888 | 34922 ft | 469 kts | 283° |
| 2026-05-06 10:18 | 13.04304 | 79.93412 | 34469 ft | 468 kts | 283° |
| 2026-05-06 10:18 | 13.05107 | 79.90184 | 33997 ft | 469 kts | 283° |
| 2026-05-06 10:18 | 13.05913 | 79.86939 | 33530 ft | 470 kts | 283° |
| 2026-05-06 10:19 | 13.06722 | 79.83686 | 33027 ft | 470 kts | 283° |
| 2026-05-06 10:19 | 13.07528 | 79.80442 | 32541 ft | 471 kts | 283° |
| 2026-05-06 10:19 | 13.08339 | 79.77186 | 32054 ft | 470 kts | 283° |
| 2026-05-06 10:19 | 13.09151 | 79.73937 | 31577 ft | 471 kts | 283° |
| 2026-05-06 10:20 | 13.09964 | 79.70685 | 31112 ft | 471 kts | 283° |
| 2026-05-06 10:20 | 13.10777 | 79.67432 | 30648 ft | 471 kts | 283° |
| 2026-05-06 10:20 | 13.11588 | 79.64178 | 30193 ft | 472 kts | 283° |
| 2026-05-06 10:20 | 13.12398 | 79.60915 | 29726 ft | 472 kts | 283° |
| 2026-05-06 10:21 | 13.13207 | 79.57646 | 29199 ft | 473 kts | 283° |
| 2026-05-06 10:21 | 13.14014 | 79.54375 | 28679 ft | 474 kts | 283° |
| 2026-05-06 10:21 | 13.14823 | 79.51100 | 28171 ft | 475 kts | 283° |
| 2026-05-06 10:21 | 13.15638 | 79.47811 | 27675 ft | 476 kts | 283° |
| 2026-05-06 10:22 | 13.16454 | 79.44522 | 27179 ft | 476 kts | 283° |
| 2026-05-06 10:22 | 13.17269 | 79.41228 | 26694 ft | 475 kts | 283° |
| 2026-05-06 10:22 | 13.17971 | 79.37941 | 26218 ft | 470 kts | 276° |
| 2026-05-06 10:22 | 13.18122 | 79.34604 | 25758 ft | 466 kts | 270° |
| 2026-05-06 10:23 | 13.18196 | 79.31288 | 25304 ft | 463 kts | 270° |
| 2026-05-06 10:23 | 13.18266 | 79.28000 | 24917 ft | 460 kts | 270° |
| 2026-05-06 10:23 | 13.18332 | 79.24721 | 24753 ft | 459 kts | 270° |
| 2026-05-06 10:23 | 13.18394 | 79.21447 | 24792 ft | 459 kts | 270° |
| 2026-05-06 10:24 | 13.18454 | 79.18168 | 24799 ft | 460 kts | 270° |
| 2026-05-06 10:24 | 13.18514 | 79.14936 | 24796 ft | 460 kts | 270° |
| 2026-05-06 10:24 | 13.18575 | 79.11656 | 24807 ft | 460 kts | 270° |
| 2026-05-06 10:24 | 13.18638 | 79.08372 | 24805 ft | 460 kts | 270° |
| 2026-05-06 10:25 | 13.18703 | 79.05092 | 24804 ft | 460 kts | 270° |
| 2026-05-06 10:25 | 13.18764 | 79.01808 | 24815 ft | 460 kts | 270° |
| 2026-05-06 10:25 | 13.18822 | 78.98525 | 24819 ft | 460 kts | 270° |
| 2026-05-06 10:25 | 13.18880 | 78.95249 | 24822 ft | 460 kts | 270° |
| 2026-05-06 10:26 | 13.18941 | 78.91959 | 24828 ft | 460 kts | 270° |
| 2026-05-06 10:26 | 13.19004 | 78.88679 | 24816 ft | 460 kts | 270° |
| 2026-05-06 10:26 | 13.19067 | 78.85402 | 24831 ft | 460 kts | 270° |
| 2026-05-06 10:26 | 13.19130 | 78.82121 | 24829 ft | 460 kts | 270° |
| 2026-05-06 10:27 | 13.19191 | 78.78847 | 24842 ft | 460 kts | 270° |
| 2026-05-06 10:27 | 13.19247 | 78.75567 | 24847 ft | 459 kts | 270° |
| 2026-05-06 10:27 | 13.19302 | 78.72291 | 24846 ft | 459 kts | 270° |
| 2026-05-06 10:27 | 13.19358 | 78.69014 | 24847 ft | 459 kts | 270° |
| 2026-05-06 10:28 | 13.19415 | 78.65739 | 24862 ft | 458 kts | 270° |
| 2026-05-06 10:28 | 13.19472 | 78.62475 | 24867 ft | 458 kts | 270° |
| 2026-05-06 10:28 | 13.19529 | 78.59208 | 24869 ft | 458 kts | 270° |
| 2026-05-06 10:28 | 13.19585 | 78.55948 | 24876 ft | 458 kts | 270° |
| 2026-05-06 10:29 | 13.19642 | 78.52684 | 24871 ft | 458 kts | 270° |
| 2026-05-06 10:29 | 13.19696 | 78.49418 | 24879 ft | 458 kts | 270° |
| 2026-05-06 10:29 | 13.19750 | 78.46153 | 24882 ft | 458 kts | 270° |
| 2026-05-06 10:29 | 13.19803 | 78.42886 | 24882 ft | 458 kts | 270° |
| 2026-05-06 10:30 | 13.19856 | 78.39670 | 24882 ft | 458 kts | 270° |
| 2026-05-06 10:30 | 13.19912 | 78.36403 | 24877 ft | 458 kts | 270° |
| 2026-05-06 10:30 | 13.19967 | 78.33139 | 24884 ft | 458 kts | 270° |
| 2026-05-06 10:30 | 13.20019 | 78.29878 | 24891 ft | 458 kts | 270° |
| 2026-05-06 10:31 | 13.20070 | 78.26609 | 24872 ft | 458 kts | 270° |
| 2026-05-06 10:31 | 13.20122 | 78.23357 | 24652 ft | 456 kts | 270° |
| 2026-05-06 10:31 | 13.20176 | 78.20103 | 24331 ft | 452 kts | 270° |
| 2026-05-06 10:31 | 13.20228 | 78.16884 | 23598 ft | 451 kts | 270° |
| 2026-05-06 10:32 | 13.20279 | 78.13668 | 22799 ft | 449 kts | 270° |
| 2026-05-06 10:32 | 13.20326 | 78.10491 | 22126 ft | 444 kts | 270° |
| 2026-05-06 10:32 | 13.20368 | 78.07578 | 21505 ft | 439 kts | 270° |
| 2026-05-06 10:32 | 13.20413 | 78.04406 | 20854 ft | 435 kts | 270° |
| 2026-05-06 10:33 | 13.20458 | 78.01317 | 20225 ft | 431 kts | 270° |
| 2026-05-06 10:33 | 13.20503 | 77.98252 | 19662 ft | 426 kts | 270° |
| 2026-05-06 10:33 | 13.20547 | 77.95258 | 19358 ft | 415 kts | 270° |
| 2026-05-06 10:33 | 13.20591 | 77.92320 | 18729 ft | 409 kts | 271° |
| 2026-05-06 10:34 | 13.20633 | 77.89454 | 18039 ft | 394 kts | 271° |
| 2026-05-06 10:34 | 13.20673 | 77.86686 | 17317 ft | 382 kts | 271° |
| 2026-05-06 10:34 | 13.20710 | 77.84103 | 16699 ft | 374 kts | 271° |
| 2026-05-06 10:34 | 13.20748 | 77.81429 | 16065 ft | 376 kts | 271° |
| 2026-05-06 10:35 | 13.20786 | 77.78734 | 15449 ft | 378 kts | 271° |
| 2026-05-06 10:35 | 13.20824 | 77.76027 | 14840 ft | 381 kts | 271° |
| 2026-05-06 10:35 | 13.20896 | 77.73305 | 14240 ft | 382 kts | 275° |
| 2026-05-06 10:35 | 13.21365 | 77.70622 | 13649 ft | 383 kts | 287° |
| 2026-05-06 10:36 | 13.22328 | 77.68084 | 12987 ft | 382 kts | 297° |
| 2026-05-06 10:36 | 13.23721 | 77.65815 | 12358 ft | 381 kts | 308° |
| 2026-05-06 10:36 | 13.25388 | 77.63662 | 11736 ft | 380 kts | 309° |
| 2026-05-06 10:36 | 13.26993 | 77.61573 | 11251 ft | 375 kts | 309° |
| 2026-05-06 10:37 | 13.28610 | 77.59451 | 10776 ft | 370 kts | 309° |
| 2026-05-06 10:37 | 13.30157 | 77.57413 | 10311 ft | 364 kts | 309° |
| 2026-05-06 10:37 | 13.31701 | 77.55375 | 9857 ft | 359 kts | 309° |
| 2026-05-06 10:37 | 13.33020 | 77.53225 | 9359 ft | 353 kts | 292° |
| 2026-05-06 10:38 | 13.33433 | 77.50809 | 8864 ft | 339 kts | 268° |
| 2026-05-06 10:38 | 13.32895 | 77.48511 | 8378 ft | 329 kts | 245° |
| 2026-05-06 10:38 | 13.31549 | 77.46629 | 7892 ft | 319 kts | 221° |
| 2026-05-06 10:38 | 13.29722 | 77.45469 | 7427 ft | 311 kts | 200° |
| 2026-05-06 10:39 | 13.27685 | 77.44791 | 7072 ft | 304 kts | 194° |
| 2026-05-06 10:39 | 13.25688 | 77.44313 | 6993 ft | 282 kts | 189° |
| 2026-05-06 10:39 | 13.23831 | 77.44070 | 6995 ft | 257 kts | 173° |
| 2026-05-06 10:39 | 13.22236 | 77.44605 | 7001 ft | 231 kts | 141° |
| 2026-05-06 10:40 | 13.21214 | 77.45784 | 6993 ft | 218 kts | 113° |
| 2026-05-06 10:40 | 13.20876 | 77.47255 | 6829 ft | 211 kts | 88° |
| 2026-05-06 10:40 | 13.20866 | 77.48768 | 6597 ft | 212 kts | 88° |
| 2026-05-06 10:40 | 13.20861 | 77.50277 | 6367 ft | 210 kts | 88° |
| 2026-05-06 10:41 | 13.20851 | 77.51766 | 6084 ft | 206 kts | 89° |
| 2026-05-06 10:41 | 13.20841 | 77.53223 | 5813 ft | 202 kts | 88° |
| 2026-05-06 10:41 | 13.20829 | 77.54649 | 5561 ft | 198 kts | 88° |
| 2026-05-06 10:41 | 13.20818 | 77.56041 | 5315 ft | 190 kts | 88° |
| 2026-05-06 10:42 | 13.20807 | 77.57359 | 5082 ft | 180 kts | 88° |
| 2026-05-06 10:42 | 13.20797 | 77.58621 | 4877 ft | 172 kts | 89° |
| 2026-05-06 10:42 | 13.20787 | 77.59802 | 4672 ft | 157 kts | 88° |
| 2026-05-06 10:42 | 13.20778 | 77.60898 | 4461 ft | 151 kts | 88° |
| 2026-05-06 10:43 | 13.20770 | 77.61953 | 4280 ft | 147 kts | 88° |
| 2026-05-06 10:43 | 13.20762 | 77.62997 | 4096 ft | 146 kts | 87° |
| 2026-05-06 10:43 | 13.20754 | 77.64037 | 3909 ft | 145 kts | 88° |
| 2026-05-06 10:44 | 13.20729 | 77.66126 | 3516 ft | 146 kts | 91° |
| 2026-05-06 10:44 | 13.20745 | 77.67142 | 3369 ft | 144 kts | 90° |
| 2026-05-06 10:44 | 13.20726 | 77.68169 | 3155 ft | 143 kts | 91° |
| 2026-05-06 10:44 | 13.20709 | 77.69178 | 3025 ft | 136 kts | 91° |
| 2026-05-06 10:45 | 13.20708 | 77.70013 | 3011 ft | 93 kts | 89° |
| 2026-05-06 10:45 | 13.20675 | 77.70495 | 3011 ft | 43 kts | 112° |
| 2026-05-06 10:45 | 13.20594 | 77.70631 | 3011 ft | 13 kts | 120° |
| 2026-05-06 10:45 | 13.20547 | 77.70715 | 3011 ft | 14 kts | 120° |
| 2026-05-06 10:46 | 13.20529 | 77.70813 | 3011 ft | 15 kts | 88° |
| 2026-05-06 10:46 | 13.20529 | 77.70921 | 3015 ft | 16 kts | 92° |
| 2026-05-06 10:46 | 13.20527 | 77.71037 | 3011 ft | 17 kts | 91° |
| 2026-05-06 10:46 | 13.20526 | 77.71158 | 3011 ft | 18 kts | 90° |
| 2026-05-06 10:47 | 13.20498 | 77.71272 | 3011 ft | 17 kts | 154° |
| 2026-05-06 10:47 | 13.20375 | 77.71276 | 3011 ft | 18 kts | 180° |
| 2026-05-06 10:47 | 13.20265 | 77.71309 | 3011 ft | 17 kts | 115° |
| 2026-05-06 10:47 | 13.20252 | 77.71428 | 3011 ft | 17 kts | 110° |
| 2026-05-06 10:48 | 13.20184 | 77.71530 | 3011 ft | 18 kts | 97° |
| 2026-05-06 10:48 | 13.20182 | 77.71660 | 3011 ft | 19 kts | 91° |
| 2026-05-06 10:48 | 13.20182 | 77.71795 | 3011 ft | 19 kts | 93° |
| 2026-05-06 10:48 | 13.20180 | 77.71937 | 3011 ft | 20 kts | 90° |
| 2026-05-06 10:49 | 13.20180 | 77.72075 | 3011 ft | 17 kts | 91° |
| 2026-05-06 10:49 | 13.20150 | 77.72179 | 3011 ft | 16 kts | 158° |
| 2026-05-06 10:49 | 13.20086 | 77.72182 | 3011 ft | 0 kts | 181° |
| 2026-05-06 10:50 | 13.20073 | 77.72187 | 3011 ft | 4 kts | 149° |
| 2026-05-06 10:50 | 13.20066 | 77.72224 | 3011 ft | 7 kts | 93° |
| 2026-05-06 10:51 | 13.20065 | 77.72257 | 3011 ft | 0 kts | 89° |
| 2026-05-06 10:51 | 13.20065 | 77.72258 | 3011 ft | 0 kts | 89° |
| 2026-05-06 11:02 | 13.20348 | 77.72232 | 3013 ft | 766 kts | 84° |